Terminal Aerodrome Forecast
Issued by NWS

Home | Current Version | Previous Version | Graphics & Text | Print | Product List | Glossary Off
Versions: 1 2 3 4 5 6 7 8 9 10 11 12 13 14 15

000
FTUS43 KDDC 130500
TAFGCK
TAF
KGCK 130520Z 1306/1406 36010KT P6SM FEW100
     FM131200 01015G25KT P6SM BKN025 OVC080
     FM131600 01025G35KT P6SM OVC015=

USA.gov is the U.S. government's official web portal to all federal, state and local government web resources and services.